Time;durP1;ratioP1;P1;durP2;ratioP2;P2;SDS_P1;SDS_P2;PMS_P1;PMS_P2;Temp;Humidity;BMP_temperature;BMP_pressure;BME280_temperature;BME280_humidity;BME280_pressure;Samples;Min_cycle;Max_cycle;Signal;HPM_P1;HPM_P2
2021/08/08 00:00:09;;;;;;;0.93;0.63;;;;;;;;;;3585533;40;20043;-60
2021/08/08 00:02:37;;;;;;;0.77;0.55;;;;;;;;;;3586401;40;20408;-60
2021/08/08 00:05:08;;;;;;;0.73;0.50;;;;;;;;;;3585990;40;20044;-60
2021/08/08 00:07:33;;;;;;;0.77;0.60;;;;;;;;;;3585118;40;20399;-60
2021/08/08 00:09:58;;;;;;;0.70;0.50;;;;;;;;;;3586083;40;20032;-60
2021/08/08 00:12:24;;;;;;;0.68;0.55;;;;;;;;;;3585743;40;20121;-60
2021/08/08 00:14:49;;;;;;;0.75;0.57;;;;;;;;;;3586775;40;20043;-60
2021/08/08 00:17:15;;;;;;;0.90;0.70;;;;;;;;;;3586727;40;20048;-61
2021/08/08 00:19:40;;;;;;;0.50;0.50;;;;;;;;;;3585693;40;20040;-61
2021/08/08 00:22:05;;;;;;;0.70;0.52;;;;;;;;;;3585940;40;20368;-60
2021/08/08 00:24:31;;;;;;;0.93;0.65;;;;;;;;;;3586373;40;20033;-61
2021/08/08 00:26:56;;;;;;;1.67;1.17;;;;;;;;;;3585246;40;20281;-61
2021/08/08 00:29:22;;;;;;;1.15;0.90;;;;;;;;;;3586067;40;20049;-60
2021/08/08 00:31:47;;;;;;;0.80;0.60;;;;;;;;;;3586532;40;20088;-60
2021/08/08 00:34:13;;;;;;;1.20;0.80;;;;;;;;;;3586528;40;20041;-60
2021/08/08 00:36:38;;;;;;;0.52;0.50;;;;;;;;;;3586693;40;20037;-61
2021/08/08 00:39:04;;;;;;;0.82;0.70;;;;;;;;;;3586424;40;20102;-60
2021/08/08 00:41:30;;;;;;;1.00;0.70;;;;;;;;;;3586649;40;20088;-60
2021/08/08 00:43:55;;;;;;;0.43;0.40;;;;;;;;;;3586060;40;20043;-60
2021/08/08 00:46:21;;;;;;;0.70;0.50;;;;;;;;;;3585982;40;20044;-60
2021/08/08 00:48:46;;;;;;;1.08;0.70;;;;;;;;;;3586678;40;20035;-60
2021/08/08 00:51:12;;;;;;;0.30;0.30;;;;;;;;;;3586671;40;20541;-60
2021/08/08 00:53:37;;;;;;;0.60;0.50;;;;;;;;;;3586714;40;20040;-60
2021/08/08 00:56:03;;;;;;;1.52;0.90;;;;;;;;;;3586871;40;20043;-60
2021/08/08 00:58:28;;;;;;;1.02;0.70;;;;;;;;;;3586778;40;20041;-60
2021/08/08 01:01:01;;;;;;;0.65;0.50;;;;;;;;;;3586732;40;20130;-60
2021/08/08 01:03:28;;;;;;;0.90;0.70;;;;;;;;;;3585973;40;20070;-60
2021/08/08 01:06:05;;;;;;;0.50;0.40;;;;;;;;;;3585494;40;20048;-60
2021/08/08 01:08:31;;;;;;;1.45;0.80;;;;;;;;;;3586137;40;20087;-60
2021/08/08 01:10:57;;;;;;;0.60;0.50;;;;;;;;;;3586425;40;20102;-60
2021/08/08 01:13:24;;;;;;;0.95;0.75;;;;;;;;;;3586035;40;20309;-60
2021/08/08 01:15:50;;;;;;;0.40;0.40;;;;;;;;;;3585996;40;20134;-60
2021/08/08 01:18:17;;;;;;;0.40;0.40;;;;;;;;;;3586523;40;20077;-60
2021/08/08 01:20:45;;;;;;;0.88;0.60;;;;;;;;;;3586344;40;20044;-60
2021/08/08 01:23:13;;;;;;;0.75;0.60;;;;;;;;;;3585881;40;20039;-60
2021/08/08 01:25:39;;;;;;;0.63;0.57;;;;;;;;;;3586016;40;20033;-60
2021/08/08 01:28:05;;;;;;;1.02;0.75;;;;;;;;;;3585952;40;20029;-60
2021/08/08 01:30:31;;;;;;;1.02;0.80;;;;;;;;;;3585956;40;20316;-60
2021/08/08 01:33:10;;;;;;;0.30;0.30;;;;;;;;;;3586298;40;20036;-60
2021/08/08 01:35:36;;;;;;;0.93;0.68;;;;;;;;;;3586108;40;20029;-60
2021/08/08 01:38:01;;;;;;;0.70;0.50;;;;;;;;;;3584238;40;20145;-60
2021/08/08 01:40:43;;;;;;;0.80;0.60;;;;;;;;;;3585456;40;20048;-60
2021/08/08 01:43:14;;;;;;;0.60;0.60;;;;;;;;;;3586489;40;20041;-60
2021/08/08 01:45:40;;;;;;;0.93;0.70;;;;;;;;;;3585424;40;20133;-60
2021/08/08 01:48:10;;;;;;;1.05;0.70;;;;;;;;;;3584952;40;20044;-60
2021/08/08 01:50:36;;;;;;;0.77;0.55;;;;;;;;;;3585717;40;20036;-60
2021/08/08 01:53:02;;;;;;;0.43;0.40;;;;;;;;;;3585979;40;20067;-60
2021/08/08 01:55:29;;;;;;;0.50;0.40;;;;;;;;;;3584350;40;20036;-59
2021/08/08 01:57:55;;;;;;;1.20;0.90;;;;;;;;;;3585653;40;20133;-60
2021/08/08 02:00:24;;;;;;;0.70;0.60;;;;;;;;;;3585971;40;20068;-61
2021/08/08 02:02:57;;;;;;;0.75;0.55;;;;;;;;;;3584714;40;20045;-60
2021/08/08 02:05:30;;;;;;;0.73;0.65;;;;;;;;;;3585654;40;20067;-60
2021/08/08 02:07:56;;;;;;;0.50;0.50;;;;;;;;;;3583871;40;20103;-60
2021/08/08 02:10:22;;;;;;;1.92;0.80;;;;;;;;;;3585589;40;20137;-60
2021/08/08 02:12:47;;;;;;;0.50;0.45;;;;;;;;;;3585466;40;20040;-60
2021/08/08 02:15:13;;;;;;;0.80;0.60;;;;;;;;;;3585760;40;20036;-61
2021/08/08 02:17:40;;;;;;;1.55;0.73;;;;;;;;;;3587401;40;20317;-61
2021/08/08 02:20:09;;;;;;;0.75;0.50;;;;;;;;;;3587067;40;20108;-61
2021/08/08 02:22:35;;;;;;;1.02;0.70;;;;;;;;;;3586588;40;20280;-61
2021/08/08 02:25:01;;;;;;;0.40;0.40;;;;;;;;;;3587568;40;20029;-61
2021/08/08 02:27:26;;;;;;;0.88;0.60;;;;;;;;;;3586142;40;20039;-61
2021/08/08 02:29:52;;;;;;;0.90;0.70;;;;;;;;;;3586784;40;20053;-61
2021/08/08 02:32:18;;;;;;;0.70;0.52;;;;;;;;;;3586776;40;20029;-61
2021/08/08 02:34:43;;;;;;;0.43;0.43;;;;;;;;;;3587451;40;20055;-61
2021/08/08 02:37:09;;;;;;;0.40;0.40;;;;;;;;;;3587435;40;20061;-62
2021/08/08 02:39:35;;;;;;;0.90;0.60;;;;;;;;;;3586482;40;20584;-61
2021/08/08 02:42:00;;;;;;;0.68;0.50;;;;;;;;;;3587521;40;20055;-61
2021/08/08 02:44:26;;;;;;;0.95;0.60;;;;;;;;;;3586804;40;20037;-61
2021/08/08 02:46:52;;;;;;;0.98;0.65;;;;;;;;;;3585393;40;20488;-61
2021/08/08 02:49:17;;;;;;;0.60;0.47;;;;;;;;;;3585496;40;20079;-61
2021/08/08 02:51:42;;;;;;;0.70;0.60;;;;;;;;;;3584996;40;20020;-61
2021/08/08 02:54:08;;;;;;;0.88;0.60;;;;;;;;;;3587534;40;20964;-61
2021/08/08 02:56:33;;;;;;;0.80;0.60;;;;;;;;;;3583631;40;20032;-61
2021/08/08 02:58:59;;;;;;;0.85;0.60;;;;;;;;;;3585229;40;20069;-61
2021/08/08 03:01:24;;;;;;;1.25;0.77;;;;;;;;;;3584323;40;20333;-61
2021/08/08 03:03:49;;;;;;;4.53;1.23;;;;;;;;;;3586636;40;20047;-61
2021/08/08 03:06:15;;;;;;;0.60;0.50;;;;;;;;;;3586601;40;20364;-61
2021/08/08 03:08:44;;;;;;;1.17;0.80;;;;;;;;;;3587061;40;20049;-61
2021/08/08 03:11:11;;;;;;;2.65;0.65;;;;;;;;;;3586954;40;20372;-61
2021/08/08 03:13:37;;;;;;;0.52;0.50;;;;;;;;;;3586789;40;20036;-61
2021/08/08 03:16:03;;;;;;;1.42;0.88;;;;;;;;;;3587024;40;20028;-61
2021/08/08 03:18:30;;;;;;;0.70;0.60;;;;;;;;;;3586970;40;20069;-61
2021/08/08 03:20:55;;;;;;;0.40;0.40;;;;;;;;;;3586799;40;20033;-61
2021/08/08 03:23:21;;;;;;;1.95;0.68;;;;;;;;;;3584796;40;20123;-61
2021/08/08 03:25:46;;;;;;;1.70;0.95;;;;;;;;;;3587174;40;20060;-61
2021/08/08 03:28:12;;;;;;;0.52;0.45;;;;;;;;;;3586818;40;20040;-61
2021/08/08 03:30:37;;;;;;;1.15;0.80;;;;;;;;;;3586075;40;20044;-61
2021/08/08 03:33:03;;;;;;;1.48;0.63;;;;;;;;;;3586566;40;20033;-61
2021/08/08 03:35:28;;;;;;;1.13;0.70;;;;;;;;;;3587087;40;20044;-61
2021/08/08 03:37:55;;;;;;;0.47;0.40;;;;;;;;;;3587104;40;20107;-61
2021/08/08 03:40:20;;;;;;;0.50;0.47;;;;;;;;;;3586512;40;20373;-60
2021/08/08 03:42:46;;;;;;;0.40;0.40;;;;;;;;;;3586097;40;20138;-61
2021/08/08 03:45:11;;;;;;;0.40;0.40;;;;;;;;;;3586609;40;20044;-60
2021/08/08 03:47:36;;;;;;;0.70;0.50;;;;;;;;;;3584874;40;20060;-61
2021/08/08 03:50:02;;;;;;;0.57;0.43;;;;;;;;;;3586853;40;20060;-60
2021/08/08 03:52:28;;;;;;;0.57;0.50;;;;;;;;;;3585961;40;20036;-60
2021/08/08 03:54:53;;;;;;;0.55;0.47;;;;;;;;;;3587169;40;20044;-60
2021/08/08 03:57:18;;;;;;;0.55;0.50;;;;;;;;;;3586558;40;20046;-60
2021/08/08 03:59:44;;;;;;;1.15;0.70;;;;;;;;;;3586513;40;20056;-60
2021/08/08 04:02:09;;;;;;;0.80;0.60;;;;;;;;;;3584918;40;20072;-60
2021/08/08 04:04:34;;;;;;;1.13;0.77;;;;;;;;;;3586280;40;20048;-60
2021/08/08 04:07:00;;;;;;;0.60;0.45;;;;;;;;;;3585568;40;20032;-61
2021/08/08 04:09:25;;;;;;;0.90;0.63;;;;;;;;;;3584289;40;20029;-60
2021/08/08 04:11:51;;;;;;;0.88;0.70;;;;;;;;;;3585155;40;20029;-60
2021/08/08 04:14:16;;;;;;;0.73;0.65;;;;;;;;;;3586299;40;20280;-60
2021/08/08 04:16:42;;;;;;;1.02;0.70;;;;;;;;;;3585885;40;20029;-60
2021/08/08 04:19:07;;;;;;;0.95;0.68;;;;;;;;;;3586143;40;20072;-61
2021/08/08 04:21:32;;;;;;;1.15;0.70;;;;;;;;;;3586668;40;20457;-60
2021/08/08 04:23:58;;;;;;;0.70;0.55;;;;;;;;;;3587146;40;20039;-60
2021/08/08 04:26:23;;;;;;;0.40;0.40;;;;;;;;;;3585873;40;20379;-60
2021/08/08 04:28:48;;;;;;;0.43;0.40;;;;;;;;;;3586177;40;20037;-60
2021/08/08 04:31:14;;;;;;;0.63;0.50;;;;;;;;;;3585105;40;20146;-60
2021/08/08 04:33:40;;;;;;;0.73;0.52;;;;;;;;;;3585614;40;20025;-60
2021/08/08 04:36:05;;;;;;;0.88;0.55;;;;;;;;;;3586111;40;20031;-60
2021/08/08 04:38:31;;;;;;;0.90;0.60;;;;;;;;;;3586630;40;20372;-61
2021/08/08 04:40:57;;;;;;;1.27;0.88;;;;;;;;;;3586414;40;20036;-60
2021/08/08 04:43:22;;;;;;;0.57;0.50;;;;;;;;;;3586500;40;20045;-60
2021/08/08 04:45:48;;;;;;;0.93;0.70;;;;;;;;;;3585822;40;20930;-60
2021/08/08 04:48:13;;;;;;;0.73;0.60;;;;;;;;;;3586511;40;20371;-60
2021/08/08 04:50:38;;;;;;;0.73;0.57;;;;;;;;;;3586089;40;20395;-60
2021/08/08 04:53:04;;;;;;;0.50;0.40;;;;;;;;;;3586766;40;20064;-60
2021/08/08 04:55:29;;;;;;;0.50;0.50;;;;;;;;;;3586265;40;20060;-60
2021/08/08 04:57:54;;;;;;;0.85;0.60;;;;;;;;;;3585597;40;20037;-60
2021/08/08 05:00:20;;;;;;;0.98;0.70;;;;;;;;;;3585445;40;20052;-60
2021/08/08 05:02:47;;;;;;;0.93;0.65;;;;;;;;;;3585629;40;20113;-60
2021/08/08 05:05:13;;;;;;;0.50;0.40;;;;;;;;;;3585828;40;20276;-60
2021/08/08 05:07:39;;;;;;;1.95;1.08;;;;;;;;;;3586779;40;20068;-60
2021/08/08 05:10:09;;;;;;;0.88;0.65;;;;;;;;;;3586692;40;20033;-60
2021/08/08 05:12:35;;;;;;;0.93;0.68;;;;;;;;;;3586632;40;20064;-61
2021/08/08 05:15:00;;;;;;;0.85;0.68;;;;;;;;;;3586014;40;20390;-60
2021/08/08 05:17:26;;;;;;;0.73;0.60;;;;;;;;;;3585323;40;20062;-60
2021/08/08 05:19:51;;;;;;;0.95;0.80;;;;;;;;;;3585238;40;20029;-60
2021/08/08 05:22:17;;;;;;;0.47;0.47;;;;;;;;;;3586114;40;20044;-58
2021/08/08 05:24:42;;;;;;;0.50;0.50;;;;;;;;;;3584498;40;20094;-60
2021/08/08 05:27:08;;;;;;;0.55;0.50;;;;;;;;;;3586804;40;20037;-59
2021/08/08 05:29:33;;;;;;;1.10;0.70;;;;;;;;;;3584230;40;20384;-59
2021/08/08 05:31:58;;;;;;;0.95;0.73;;;;;;;;;;3586211;40;20037;-59
2021/08/08 05:34:24;;;;;;;0.85;0.60;;;;;;;;;;3585564;40;20075;-59
2021/08/08 05:36:49;;;;;;;0.88;0.60;;;;;;;;;;3586357;40;20033;-59
2021/08/08 05:39:14;;;;;;;0.70;0.57;;;;;;;;;;3585905;40;20373;-59
2021/08/08 05:41:40;;;;;;;0.40;0.40;;;;;;;;;;3586359;40;20036;-59
2021/08/08 05:44:05;;;;;;;1.83;0.88;;;;;;;;;;3585905;40;20037;-60
2021/08/08 05:46:31;;;;;;;0.60;0.50;;;;;;;;;;3586150;40;20037;-60
2021/08/08 05:48:56;;;;;;;0.90;0.70;;;;;;;;;;3586016;40;20037;-60
2021/08/08 05:51:21;;;;;;;1.05;0.73;;;;;;;;;;3587288;40;20116;-60
2021/08/08 05:53:47;;;;;;;0.60;0.50;;;;;;;;;;3587622;40;20060;-60
2021/08/08 05:56:12;;;;;;;0.80;0.50;;;;;;;;;;3587719;40;20041;-60
2021/08/08 05:58:37;;;;;;;0.70;0.50;;;;;;;;;;3585820;40;20141;-60
2021/08/08 06:01:03;;;;;;;0.52;0.43;;;;;;;;;;3586156;40;20059;-60
2021/08/08 06:03:28;;;;;;;1.77;0.70;;;;;;;;;;3586539;40;20045;-60
2021/08/08 06:05:53;;;;;;;0.60;0.50;;;;;;;;;;3585823;40;20040;-59
2021/08/08 06:08:19;;;;;;;0.60;0.50;;;;;;;;;;3583873;40;20043;-59
2021/08/08 06:10:45;;;;;;;0.68;0.57;;;;;;;;;;3586694;40;20039;-60
2021/08/08 06:13:10;;;;;;;0.73;0.55;;;;;;;;;;3587562;40;20130;-60
2021/08/08 06:15:36;;;;;;;0.60;0.50;;;;;;;;;;3587554;40;20037;-60
2021/08/08 06:18:01;;;;;;;0.60;0.57;;;;;;;;;;3583034;40;20036;-60
2021/08/08 06:20:26;;;;;;;2.17;0.85;;;;;;;;;;3587853;40;20049;-60
2021/08/08 06:22:52;;;;;;;0.93;0.60;;;;;;;;;;3586997;40;20048;-60
2021/08/08 06:25:18;;;;;;;0.50;0.50;;;;;;;;;;3584253;40;20036;-60
2021/08/08 06:27:43;;;;;;;0.55;0.45;;;;;;;;;;3586106;40;20044;-59
2021/08/08 06:30:10;;;;;;;0.88;0.70;;;;;;;;;;3586687;40;20056;-60
2021/08/08 06:32:35;;;;;;;1.20;0.80;;;;;;;;;;3585710;40;20045;-60
2021/08/08 06:35:03;;;;;;;0.80;0.60;;;;;;;;;;3585890;40;20111;-60
2021/08/08 06:37:28;;;;;;;1.00;0.73;;;;;;;;;;3585992;40;20502;-59
2021/08/08 06:39:53;;;;;;;0.60;0.50;;;;;;;;;;3585535;40;20049;-60
2021/08/08 06:42:19;;;;;;;0.88;0.63;;;;;;;;;;3586566;40;20304;-59
2021/08/08 06:44:44;;;;;;;0.90;0.65;;;;;;;;;;3586970;40;20048;-60
2021/08/08 06:47:10;;;;;;;3.83;0.98;;;;;;;;;;3585427;40;20075;-59
2021/08/08 06:49:35;;;;;;;0.77;0.60;;;;;;;;;;3587320;40;20159;-60
2021/08/08 06:52:00;;;;;;;0.90;0.60;;;;;;;;;;3587175;40;20362;-60
2021/08/08 06:54:26;;;;;;;2.25;1.30;;;;;;;;;;3587638;40;20113;-60
2021/08/08 06:56:51;;;;;;;1.23;0.80;;;;;;;;;;3585808;40;20044;-60
2021/08/08 06:59:17;;;;;;;0.88;0.63;;;;;;;;;;3586066;40;20048;-60
2021/08/08 07:01:42;;;;;;;0.93;0.68;;;;;;;;;;3585356;40;20122;-60
2021/08/08 07:04:08;;;;;;;1.23;0.80;;;;;;;;;;3586036;40;20113;-60
2021/08/08 07:06:33;;;;;;;0.98;0.70;;;;;;;;;;3586205;40;20044;-60
2021/08/08 07:08:59;;;;;;;0.68;0.57;;;;;;;;;;3586035;40;20040;-60
2021/08/08 07:11:26;;;;;;;0.95;0.60;;;;;;;;;;3584303;40;20044;-59
2021/08/08 07:13:51;;;;;;;0.60;0.50;;;;;;;;;;3585017;40;20059;-59
2021/08/08 07:16:17;;;;;;;0.80;0.70;;;;;;;;;;3586024;40;20052;-59
2021/08/08 07:18:43;;;;;;;0.90;0.60;;;;;;;;;;3587412;40;20041;-60
2021/08/08 07:21:09;;;;;;;0.88;0.60;;;;;;;;;;3587174;40;20035;-60
2021/08/08 07:23:35;;;;;;;1.10;0.80;;;;;;;;;;3585883;40;20048;-60
2021/08/08 07:26:00;;;;;;;1.02;0.70;;;;;;;;;;3586807;40;20040;-59
2021/08/08 07:28:26;;;;;;;1.83;1.33;;;;;;;;;;3586174;40;20029;-60
2021/08/08 07:30:52;;;;;;;1.58;1.02;;;;;;;;;;3585700;40;20068;-59
2021/08/08 07:33:17;;;;;;;1.10;0.80;;;;;;;;;;3585974;40;20081;-60
2021/08/08 07:35:43;;;;;;;1.30;0.90;;;;;;;;;;3586968;40;20044;-59
2021/08/08 07:38:09;;;;;;;1.13;0.80;;;;;;;;;;3586984;40;20091;-60
2021/08/08 07:40:35;;;;;;;1.10;0.70;;;;;;;;;;3586276;40;20546;-59
2021/08/08 07:43:00;;;;;;;1.08;0.73;;;;;;;;;;3586422;40;20033;-60
2021/08/08 07:45:25;;;;;;;1.60;0.85;;;;;;;;;;3582197;40;20037;-60
2021/08/08 07:47:51;;;;;;;1.02;0.75;;;;;;;;;;3587189;40;20041;-60
2021/08/08 07:50:16;;;;;;;0.80;0.60;;;;;;;;;;3586825;40;20037;-60
2021/08/08 07:52:42;;;;;;;0.70;0.57;;;;;;;;;;3585001;40;20312;-60
2021/08/08 07:55:09;;;;;;;7.53;1.08;;;;;;;;;;3586856;40;20137;-59
2021/08/08 07:57:34;;;;;;;1.25;1.15;;;;;;;;;;3586384;40;20403;-59
2021/08/08 07:59:59;;;;;;;1.02;0.70;;;;;;;;;;3585983;40;20048;-60
2021/08/08 08:02:25;;;;;;;0.95;0.68;;;;;;;;;;3583639;40;20792;-59
2021/08/08 08:04:51;;;;;;;1.30;0.80;;;;;;;;;;3585881;40;20057;-60
2021/08/08 08:07:16;;;;;;;1.40;0.98;;;;;;;;;;3585723;40;20041;-59
2021/08/08 08:09:41;;;;;;;1.40;0.93;;;;;;;;;;3585854;40;20138;-59
2021/08/08 08:12:07;;;;;;;1.20;0.82;;;;;;;;;;3586189;40;20052;-60
2021/08/08 08:14:33;;;;;;;1.10;0.82;;;;;;;;;;3586077;40;20029;-59
2021/08/08 08:16:58;;;;;;;1.05;0.75;;;;;;;;;;3586685;40;20029;-59
2021/08/08 08:19:23;;;;;;;1.25;0.93;;;;;;;;;;3586595;40;20040;-60
2021/08/08 08:21:49;;;;;;;1.30;0.98;;;;;;;;;;3583895;40;20081;-59
2021/08/08 08:24:15;;;;;;;1.67;1.25;;;;;;;;;;3586405;40;20033;-59
2021/08/08 08:26:40;;;;;;;1.15;0.90;;;;;;;;;;3586831;40;20021;-59
2021/08/08 08:29:06;;;;;;;1.00;0.77;;;;;;;;;;3586258;40;20040;-60
2021/08/08 08:31:33;;;;;;;1.30;0.90;;;;;;;;;;3586147;40;20036;-60
2021/08/08 08:33:58;;;;;;;1.00;0.80;;;;;;;;;;3586517;40;20040;-60
2021/08/08 08:36:23;;;;;;;2.28;1.00;;;;;;;;;;3586093;40;20132;-60
2021/08/08 08:38:49;;;;;;;1.70;1.20;;;;;;;;;;3585869;40;20045;-59
2021/08/08 08:41:15;;;;;;;1.75;1.35;;;;;;;;;;3586429;40;20041;-59
2021/08/08 08:43:43;;;;;;;0.90;0.68;;;;;;;;;;3586516;40;20044;-60
2021/08/08 08:46:10;;;;;;;1.35;1.00;;;;;;;;;;3586626;40;20048;-60
2021/08/08 08:48:37;;;;;;;0.95;0.77;;;;;;;;;;3586311;40;20118;-60
2021/08/08 08:51:04;;;;;;;1.10;0.82;;;;;;;;;;3585424;40;20265;-60
2021/08/08 08:53:30;;;;;;;0.80;0.63;;;;;;;;;;3586534;40;20056;-60
2021/08/08 08:55:59;;;;;;;0.80;0.68;;;;;;;;;;3586270;40;20316;-60
2021/08/08 08:58:25;;;;;;;1.13;0.82;;;;;;;;;;3585819;40;20261;-60
2021/08/08 09:00:50;;;;;;;0.77;0.68;;;;;;;;;;3585586;40;20035;-59
2021/08/08 09:03:15;;;;;;;0.75;0.68;;;;;;;;;;3586709;40;20033;-60
2021/08/08 09:05:41;;;;;;;0.77;0.65;;;;;;;;;;3586552;40;20052;-59
2021/08/08 09:08:06;;;;;;;0.75;0.65;;;;;;;;;;3586171;40;20071;-60
2021/08/08 09:10:32;;;;;;;1.30;0.90;;;;;;;;;;3584934;40;20059;-60
2021/08/08 09:12:59;;;;;;;0.90;0.60;;;;;;;;;;3585186;40;20091;-60
2021/08/08 09:15:41;;;;;;;1.17;0.85;;;;;;;;;;3585383;40;20040;-60
2021/08/08 09:18:11;;;;;;;0.65;0.60;;;;;;;;;;3585972;40;20580;-60
2021/08/08 09:20:36;;;;;;;1.00;0.70;;;;;;;;;;3586342;40;20036;-60
2021/08/08 09:23:02;;;;;;;3.38;1.10;;;;;;;;;;3586029;40;20040;-59
2021/08/08 09:25:27;;;;;;;1.35;0.70;;;;;;;;;;3585257;40;20052;-60
2021/08/08 09:28:09;;;;;;;1.13;0.80;;;;;;;;;;3585715;40;20044;-60
2021/08/08 09:30:42;;;;;;;1.00;0.80;;;;;;;;;;3585124;40;20043;-60
2021/08/08 09:33:10;;;;;;;1.60;1.00;;;;;;;;;;3585478;40;20364;-60
2021/08/08 09:35:41;;;;;;;3.42;0.80;;;;;;;;;;3585013;40;20037;-60
2021/08/08 09:38:09;;;;;;;1.23;0.90;;;;;;;;;;3585731;40;20113;-60
2021/08/08 09:40:37;;;;;;;2.28;1.52;;;;;;;;;;3586132;40;20045;-60
2021/08/08 09:43:05;;;;;;;1.25;0.73;;;;;;;;;;3586287;40;20048;-60
2021/08/08 09:45:41;;;;;;;1.58;1.00;;;;;;;;;;3586260;40;20040;-60
2021/08/08 09:48:13;;;;;;;0.90;0.70;;;;;;;;;;3586431;40;20097;-60
2021/08/08 09:50:40;;;;;;;1.27;0.90;;;;;;;;;;3585606;40;20052;-60
2021/08/08 09:53:08;;;;;;;1.13;0.85;;;;;;;;;;3584931;40;20064;-60
2021/08/08 09:55:38;;;;;;;1.13;0.80;;;;;;;;;;3585530;40;20037;-60
2021/08/08 09:58:24;;;;;;;1.20;0.75;;;;;;;;;;3585295;40;20088;-60
2021/08/08 10:00:56;;;;;;;1.00;0.73;;;;;;;;;;3585512;40;20041;-60
2021/08/08 10:03:22;;;;;;;1.45;1.02;;;;;;;;;;3584321;40;20055;-60
2021/08/08 10:05:47;;;;;;;0.88;0.70;;;;;;;;;;3585216;40;20067;-60
2021/08/08 10:08:16;;;;;;;1.35;0.90;;;;;;;;;;3586165;40;20040;-60
2021/08/08 10:10:44;;;;;;;1.60;1.02;;;;;;;;;;3585271;40;20060;-60
2021/08/08 10:13:31;;;;;;;1.63;0.93;;;;;;;;;;3584839;40;20036;-60
2021/08/08 10:15:58;;;;;;;2.25;1.35;;;;;;;;;;3584648;40;20036;-60
2021/08/08 10:18:29;;;;;;;1.60;0.80;;;;;;;;;;3585756;40;20118;-60
2021/08/08 10:20:54;;;;;;;1.55;0.98;;;;;;;;;;3586188;40;20067;-60
2021/08/08 10:23:22;;;;;;;0.98;0.82;;;;;;;;;;3585188;40;20037;-59
2021/08/08 10:25:49;;;;;;;1.15;0.90;;;;;;;;;;3585452;40;20037;-59
2021/08/08 10:28:15;;;;;;;1.50;0.80;;;;;;;;;;3586583;40;20033;-60
2021/08/08 10:30:42;;;;;;;1.13;0.90;;;;;;;;;;3584631;40;20284;-60
2021/08/08 10:33:08;;;;;;;1.02;0.75;;;;;;;;;;3585776;40;20070;-59
2021/08/08 10:35:45;;;;;;;9.30;1.00;;;;;;;;;;3585129;40;20360;-59
2021/08/08 10:38:12;;;;;;;1.15;0.85;;;;;;;;;;3585876;40;20032;-60
2021/08/08 10:40:39;;;;;;;1.77;1.20;;;;;;;;;;3586912;40;20130;-60
2021/08/08 10:43:06;;;;;;;1.10;0.80;;;;;;;;;;3586944;40;20368;-60
2021/08/08 10:45:34;;;;;;;4.18;1.10;;;;;;;;;;3585359;40;20033;-60
2021/08/08 10:48:01;;;;;;;5.72;1.45;;;;;;;;;;3585769;40;20044;-60
2021/08/08 10:50:43;;;;;;;1.48;1.10;;;;;;;;;;3587400;40;20043;-60
2021/08/08 10:53:29;;;;;;;1.00;0.80;;;;;;;;;;3586997;40;20044;-60
2021/08/08 10:56:11;;;;;;;1.27;0.95;;;;;;;;;;3587593;40;20047;-60
2021/08/08 10:58:39;;;;;;;1.15;0.85;;;;;;;;;;3587279;40;20033;-60
2021/08/08 11:01:21;;;;;;;1.20;0.82;;;;;;;;;;3586988;40;20036;-60
2021/08/08 11:03:59;;;;;;;1.13;0.80;;;;;;;;;;3587546;40;20032;-60
2021/08/08 11:06:26;;;;;;;0.70;0.60;;;;;;;;;;3586548;40;20040;-60
2021/08/08 11:08:53;;;;;;;3.05;1.20;;;;;;;;;;3586935;40;20047;-61
2021/08/08 11:11:27;;;;;;;0.90;0.70;;;;;;;;;;3587047;40;20048;-59
2021/08/08 11:13:54;;;;;;;0.63;0.60;;;;;;;;;;3587141;40;20036;-60
2021/08/08 11:16:21;;;;;;;1.20;0.93;;;;;;;;;;3587351;40;20040;-59
2021/08/08 11:18:56;;;;;;;1.05;0.85;;;;;;;;;;3586694;40;20292;-60
2021/08/08 11:21:22;;;;;;;1.35;1.00;;;;;;;;;;3587124;40;20447;-59
2021/08/08 11:24:00;;;;;;;1.00;0.80;;;;;;;;;;3587335;40;20072;-59
2021/08/08 11:26:26;;;;;;;1.10;0.90;;;;;;;;;;3587000;40;20043;-59
2021/08/08 11:28:59;;;;;;;1.08;0.90;;;;;;;;;;3585983;40;20040;-59
2021/08/08 11:31:30;;;;;;;1.13;0.90;;;;;;;;;;3585592;40;20044;-59
2021/08/08 11:34:01;;;;;;;1.73;1.35;;;;;;;;;;3585940;40;20037;-59
2021/08/08 11:36:32;;;;;;;1.30;1.10;;;;;;;;;;3586487;40;20040;-59
2021/08/08 11:38:59;;;;;;;1.38;1.00;;;;;;;;;;3586711;40;20392;-59
2021/08/08 11:41:25;;;;;;;1.38;0.98;;;;;;;;;;3587077;40;20044;-59
2021/08/08 11:44:13;;;;;;;0.82;0.70;;;;;;;;;;3586855;40;20069;-60
2021/08/08 11:46:52;;;;;;;1.02;0.80;;;;;;;;;;3585919;40;20077;-60
2021/08/08 11:49:20;;;;;;;3.65;1.30;;;;;;;;;;3585129;40;20051;-59
2021/08/08 11:51:58;;;;;;;1.05;0.82;;;;;;;;;;3586686;40;20036;-59
2021/08/08 11:54:26;;;;;;;1.38;1.00;;;;;;;;;;3586701;40;20121;-60
2021/08/08 11:56:51;;;;;;;1.63;1.23;;;;;;;;;;3586693;40;20052;-59
2021/08/08 11:59:34;;;;;;;1.77;1.25;;;;;;;;;;3586699;40;20126;-59
2021/08/08 12:02:09;;;;;;;1.30;0.90;;;;;;;;;;3586720;40;20032;-60
2021/08/08 12:04:36;;;;;;;0.93;0.80;;;;;;;;;;3586400;40;20047;-60
2021/08/08 12:07:04;;;;;;;0.73;0.68;;;;;;;;;;3586328;40;20037;-59
2021/08/08 12:09:29;;;;;;;1.48;1.05;;;;;;;;;;3586239;40;20044;-60
2021/08/08 12:11:57;;;;;;;2.67;1.42;;;;;;;;;;3587062;40;20276;-59
2021/08/08 12:14:39;;;;;;;0.90;0.80;;;;;;;;;;3586764;40;20104;-60
2021/08/08 12:17:20;;;;;;;0.90;0.73;;;;;;;;;;3586910;40;20045;-59
2021/08/08 12:19:50;;;;;;;1.10;0.90;;;;;;;;;;3592574;40;20045;-60
2021/08/08 12:22:19;;;;;;;1.20;0.90;;;;;;;;;;3586162;40;20037;-59
2021/08/08 12:24:47;;;;;;;0.88;0.70;;;;;;;;;;3585641;40;20122;-59
2021/08/08 12:27:42;;;;;;;1.17;0.93;;;;;;;;;;3585917;40;20390;-59
2021/08/08 12:30:12;;;;;;;0.82;0.77;;;;;;;;;;3580308;40;20522;-59
2021/08/08 12:32:39;;;;;;;1.30;0.90;;;;;;;;;;3586476;40;20045;-59
2021/08/08 12:35:11;;;;;;;1.23;0.93;;;;;;;;;;3586756;40;20387;-59
2021/08/08 12:37:37;;;;;;;1.10;1.00;;;;;;;;;;3586089;40;20032;-59
2021/08/08 12:40:21;;;;;;;1.13;0.90;;;;;;;;;;3586471;40;20453;-59
2021/08/08 12:42:47;;;;;;;0.77;0.68;;;;;;;;;;3586273;40;20048;-59
2021/08/08 12:45:14;;;;;;;1.17;0.88;;;;;;;;;;3584599;40;20036;-59
2021/08/08 12:47:41;;;;;;;1.35;1.10;;;;;;;;;;3585991;40;20467;-59
2021/08/08 12:50:21;;;;;;;1.73;1.30;;;;;;;;;;3585789;40;20084;-59
2021/08/08 12:52:48;;;;;;;1.08;0.80;;;;;;;;;;3586479;40;20048;-58
2021/08/08 12:55:15;;;;;;;1.38;0.98;;;;;;;;;;3586457;40;20375;-59
2021/08/08 12:57:42;;;;;;;1.25;1.00;;;;;;;;;;3585776;40;20051;-59
2021/08/08 13:00:09;;;;;;;1.52;1.10;;;;;;;;;;3585392;40;20041;-59
2021/08/08 13:02:35;;;;;;;0.80;0.70;;;;;;;;;;3585841;40;20317;-60
2021/08/08 13:05:00;;;;;;;2.00;1.20;;;;;;;;;;3586651;40;20036;-59
2021/08/08 13:07:26;;;;;;;0.93;0.80;;;;;;;;;;3585427;40;20141;-59
2021/08/08 13:09:51;;;;;;;1.55;1.13;;;;;;;;;;3584579;40;20059;-59
2021/08/08 13:12:17;;;;;;;1.25;0.95;;;;;;;;;;3586352;40;20060;-59
2021/08/08 13:14:44;;;;;;;1.35;1.00;;;;;;;;;;3585845;40;20423;-59
2021/08/08 13:17:09;;;;;;;1.35;1.02;;;;;;;;;;3583486;40;20029;-60
2021/08/08 13:19:35;;;;;;;1.33;1.00;;;;;;;;;;3582970;40;20110;-60
2021/08/08 13:22:05;;;;;;;1.50;1.02;;;;;;;;;;3585931;40;20056;-60
2021/08/08 13:24:31;;;;;;;1.35;0.90;;;;;;;;;;3586613;40;20044;-59
2021/08/08 13:26:56;;;;;;;1.75;1.33;;;;;;;;;;3586290;40;20041;-59
2021/08/08 13:29:21;;;;;;;1.90;1.35;;;;;;;;;;3585952;40;20036;-60
2021/08/08 13:31:47;;;;;;;1.27;0.98;;;;;;;;;;3586745;40;20029;-59
2021/08/08 13:34:12;;;;;;;1.02;0.80;;;;;;;;;;3586113;40;20175;-59
2021/08/08 13:36:37;;;;;;;1.00;0.82;;;;;;;;;;3586120;40;20037;-59
2021/08/08 13:39:03;;;;;;;1.58;1.13;;;;;;;;;;3584622;40;20073;-65
2021/08/08 13:41:28;;;;;;;1.13;0.90;;;;;;;;;;3581500;40;20035;-64
2021/08/08 13:43:54;;;;;;;0.98;0.77;;;;;;;;;;3584438;40;20039;-64
2021/08/08 13:46:19;;;;;;;1.45;1.02;;;;;;;;;;3583780;40;20025;-63
2021/08/08 13:48:45;;;;;;;1.67;1.13;;;;;;;;;;3585354;40;20036;-63
2021/08/08 13:51:10;;;;;;;0.70;0.60;;;;;;;;;;3584223;40;20110;-63
2021/08/08 13:53:36;;;;;;;0.70;0.55;;;;;;;;;;3584938;40;20048;-62
2021/08/08 13:56:02;;;;;;;1.00;0.70;;;;;;;;;;3585506;40;20059;-63
2021/08/08 13:58:27;;;;;;;0.80;0.68;;;;;;;;;;3585073;40;20045;-63
2021/08/08 14:00:53;;;;;;;1.13;0.73;;;;;;;;;;3585717;40;20437;-63
2021/08/08 14:03:19;;;;;;;1.42;0.75;;;;;;;;;;3584761;40;20067;-63
2021/08/08 14:05:45;;;;;;;0.80;0.60;;;;;;;;;;3585511;40;20354;-63
2021/08/08 14:08:10;;;;;;;1.00;0.75;;;;;;;;;;3586298;40;20040;-62
2021/08/08 14:10:36;;;;;;;0.95;0.70;;;;;;;;;;3584379;40;20126;-63
2021/08/08 14:13:03;;;;;;;0.93;0.77;;;;;;;;;;3587517;40;20051;-63
2021/08/08 14:15:29;;;;;;;1.58;1.10;;;;;;;;;;3587235;40;20078;-62
2021/08/08 14:17:55;;;;;;;0.60;0.45;;;;;;;;;;3587717;40;20408;-63
2021/08/08 14:20:21;;;;;;;0.60;0.50;;;;;;;;;;3587301;40;20067;-63
2021/08/08 14:22:46;;;;;;;3.05;0.80;;;;;;;;;;3587752;40;20029;-61
2021/08/08 14:25:12;;;;;;;0.85;0.60;;;;;;;;;;3587235;40;20032;-63
2021/08/08 14:27:37;;;;;;;0.70;0.50;;;;;;;;;;3586249;40;20040;-62
2021/08/08 14:30:03;;;;;;;0.90;0.70;;;;;;;;;;3585586;40;20051;-63
2021/08/08 14:32:28;;;;;;;0.90;0.65;;;;;;;;;;3586260;40;20032;-63
2021/08/08 14:34:54;;;;;;;0.65;0.55;;;;;;;;;;3587266;40;20043;-63
2021/08/08 14:37:21;;;;;;;0.85;0.60;;;;;;;;;;3585890;40;20051;-62
2021/08/08 14:39:46;;;;;;;0.68;0.55;;;;;;;;;;3586714;40;20360;-63
2021/08/08 14:42:12;;;;;;;1.02;0.70;;;;;;;;;;3585883;40;20068;-63